Time;durP1;ratioP1;P1;durP2;ratioP2;P2;SDS_P1;SDS_P2;PMS_P1;PMS_P2;Temp;Humidity;BMP_temperature;BMP_pressure;BME280_temperature;BME280_humidity;BME280_pressure;Samples;Min_cycle;Max_cycle;Signal;HPM_P1;HPM_P2
2021/06/19 00:01:21;;;;;;;10.95;7.10;;;;;;;20.89;69.93;99246.44;5050785;28;20021;-85
2021/06/19 00:03:46;;;;;;;9.02;7.53;;;;;;;20.92;70.21;99252.50;5049669;28;20456;-75
2021/06/19 00:06:12;;;;;;;9.50;6.53;;;;;;;20.95;69.78;99237.47;5050572;28;20029;-76
2021/06/19 00:08:37;;;;;;;8.77;6.68;;;;;;;20.86;68.65;99247.22;5049636;28;20034;-74
2021/06/19 00:11:03;;;;;;;12.98;6.82;;;;;;;20.76;69.12;99257.38;5047923;28;20100;-85
2021/06/19 00:13:29;;;;;;;16.17;7.35;;;;;;;20.80;69.29;99253.72;5050743;28;20040;-85
2021/06/19 00:15:54;;;;;;;10.13;6.65;;;;;;;20.65;69.34;99253.75;5050439;28;20068;-86
2021/06/19 00:18:20;;;;;;;9.20;6.47;;;;;;;20.57;69.82;99240.78;5050181;28;20056;-85
2021/06/19 00:20:46;;;;;;;8.63;6.50;;;;;;;20.56;68.91;99245.66;5050464;28;20136;-85
2021/06/19 00:23:12;;;;;;;8.10;7.28;;;;;;;20.56;69.19;99250.53;5045943;28;20080;-86
2021/06/19 00:25:37;;;;;;;10.50;7.18;;;;;;;20.50;68.94;99243.66;5049137;28;20091;-73
2021/06/19 00:28:03;;;;;;;7.50;6.47;;;;;;;20.47;69.28;99248.13;5046036;28;20038;-74
2021/06/19 00:30:29;;;;;;;11.13;6.63;;;;;;;20.42;69.61;99255.03;5043909;28;20025;-74
2021/06/19 00:32:55;;;;;;;11.57;6.90;;;;;;;20.34;69.57;99248.53;5040715;28;20033;-85
2021/06/19 00:35:21;;;;;;;10.20;6.80;;;;;;;20.27;70.14;99248.56;5050000;28;20082;-74
2021/06/19 00:37:49;;;;;;;10.95;6.28;;;;;;;20.27;69.54;99240.03;5045779;28;20195;-85
2021/06/19 00:40:16;;;;;;;10.95;6.68;;;;;;;20.29;69.67;99245.28;5047289;28;20044;-85
2021/06/19 00:42:59;;;;;;;11.43;6.90;;;;;;;20.37;70.13;99248.94;5056911;28;20044;-75
2021/06/19 00:45:27;;;;;;;16.17;6.28;;;;;;;20.33;69.97;99246.91;5057030;28;20033;-85
2021/06/19 00:47:53;;;;;;;8.43;5.72;;;;;;;20.41;69.61;99249.75;5055854;28;20033;-85
2021/06/19 00:50:20;;;;;;;8.60;6.30;;;;;;;20.38;68.98;99237.19;5056780;28;20036;-75
2021/06/19 00:52:46;;;;;;;7.53;6.57;;;;;;;20.42;69.39;99242.88;5056684;28;20113;-75
2021/06/19 00:55:12;;;;;;;7.07;5.63;;;;;;;20.36;69.19;99236.78;5056649;28;20064;-75
2021/06/19 00:57:38;;;;;;;10.15;6.57;;;;;;;20.51;69.14;99243.22;5056700;28;20037;-75
2021/06/19 01:00:06;;;;;;;8.20;5.93;;;;;;;20.64;68.82;99245.66;5056578;28;20033;-75
2021/06/19 01:02:32;;;;;;;7.15;6.00;;;;;;;20.73;68.27;99243.19;5047571;28;20033;-75
2021/06/19 01:04:57;;;;;;;9.95;7.55;;;;;;;20.81;67.99;99244.81;5055233;28;20116;-83
2021/06/19 01:07:23;;;;;;;7.50;6.45;;;;;;;20.84;68.17;99244.00;5056531;28;20487;-76
2021/06/19 01:09:49;;;;;;;7.53;6.72;;;;;;;20.83;68.45;99248.06;5055234;28;20060;-83
2021/06/19 01:12:22;;;;;;;8.23;6.38;;;;;;;20.82;68.10;99243.59;5056496;28;20040;-75
2021/06/19 01:14:48;;;;;;;7.78;5.85;;;;;;;20.77;67.26;99236.28;5054604;28;20422;-75
2021/06/19 01:17:14;;;;;;;8.93;6.10;;;;;;;20.72;67.35;99236.72;5056260;28;20025;-75
2021/06/19 01:19:39;;;;;;;6.90;5.43;;;;;;;20.74;67.54;99241.97;5056180;28;20045;-84
2021/06/19 01:22:05;;;;;;;6.50;5.85;;;;;;;20.70;67.58;99236.31;5056365;28;20033;-84
2021/06/19 01:24:33;;;;;;;8.57;5.10;;;;;;;20.68;67.68;99241.56;5052049;28;20029;-76
2021/06/19 01:26:59;;;;;;;6.30;4.85;;;;;;;20.63;68.06;99244.84;5053888;28;20017;-76
2021/06/19 01:29:24;;;;;;;6.60;5.47;;;;;;;20.62;68.19;99235.50;5055133;28;20128;-84
2021/06/19 01:31:51;;;;;;;14.63;5.13;;;;;;;20.57;68.14;99241.59;5056275;28;20062;-84
2021/06/19 01:34:16;;;;;;;5.95;5.00;;;;;;;20.49;68.73;99245.66;5052049;28;20034;-85
2021/06/19 01:36:42;;;;;;;12.10;5.53;;;;;;;20.51;68.97;99246.06;5050530;28;20032;-85
2021/06/19 01:39:08;;;;;;;6.95;5.45;;;;;;;20.42;69.49;99242.88;5051837;28;20036;-75
2021/06/19 01:41:34;;;;;;;14.05;5.65;;;;;;;20.39;69.78;99229.44;5048847;28;20028;-75
2021/06/19 01:44:03;;;;;;;7.25;5.28;;;;;;;20.36;69.47;99227.44;5054694;28;20029;-74
2021/06/19 01:46:29;;;;;;;7.03;5.47;;;;;;;20.30;70.02;99232.72;5056716;28;20021;-84
2021/06/19 01:48:55;;;;;;;7.13;5.88;;;;;;;20.33;69.71;99241.25;5050870;28;20060;-75
2021/06/19 01:51:20;;;;;;;11.98;5.68;;;;;;;20.26;69.73;99232.72;5043460;28;20072;-84
2021/06/19 01:53:46;;;;;;;6.53;4.85;;;;;;;20.15;69.65;99244.09;5031559;28;20392;-74
2021/06/19 01:56:13;;;;;;;11.88;5.25;;;;;;;20.03;70.03;99253.03;5047146;28;20029;-84
2021/06/19 01:58:38;;;;;;;5.03;4.55;;;;;;;19.99;70.14;99253.00;5032101;28;20064;-84
2021/06/19 02:01:05;;;;;;;10.45;4.85;;;;;;;19.91;70.42;99249.34;5033069;28;20488;-83
2021/06/19 02:03:31;;;;;;;9.73;6.32;;;;;;;19.86;70.54;99248.91;5032125;28;20036;-82
2021/06/19 02:05:57;;;;;;;10.77;5.40;;;;;;;19.85;70.52;99248.13;5036874;28;20483;-74
2021/06/19 02:08:23;;;;;;;6.03;4.90;;;;;;;19.76;70.69;99251.34;5048840;28;20048;-74
2021/06/19 02:10:49;;;;;;;6.88;5.10;;;;;;;19.64;70.87;99243.22;5033440;28;20141;-82
2021/06/19 02:13:15;;;;;;;4.68;4.22;;;;;;;19.63;70.94;99231.06;5036495;28;20064;-83
2021/06/19 02:15:43;;;;;;;10.95;7.00;;;;;;;19.64;71.51;99240.38;5039857;28;20021;-83
2021/06/19 02:18:09;;;;;;;13.23;8.05;;;;;;;19.59;71.32;99235.13;5042801;28;20490;-83
2021/06/19 02:20:34;;;;;;;12.02;10.35;;;;;;;19.62;71.45;99237.13;5033789;28;20037;-83
2021/06/19 02:23:01;;;;;;;5.60;4.97;;;;;;;19.71;71.04;99248.91;5037485;28;20042;-83
2021/06/19 02:25:30;;;;;;;4.45;3.78;;;;;;;19.66;71.43;99237.16;5033349;28;20416;-74
2021/06/19 02:28:08;;;;;;;5.20;3.28;;;;;;;19.79;70.86;99241.22;5032619;28;20452;-75
2021/06/19 02:30:37;;;;;;;4.18;3.78;;;;;;;19.75;71.04;99249.72;5034705;28;20040;-84
2021/06/19 02:33:04;;;;;;;5.40;4.15;;;;;;;19.76;70.66;99247.72;5035394;28;20376;-75
2021/06/19 02:35:32;;;;;;;4.22;3.75;;;;;;;19.77;70.66;99250.13;5033840;28;20022;-83
2021/06/19 02:37:59;;;;;;;8.50;3.53;;;;;;;19.82;70.93;99245.28;5033377;28;20104;-75
2021/06/19 02:40:25;;;;;;;9.95;3.67;;;;;;;19.97;71.10;99232.75;5032513;28;20442;-83
2021/06/19 02:42:51;;;;;;;18.35;5.53;;;;;;;20.11;70.60;99242.47;5032354;28;20032;-75
2021/06/19 02:45:17;;;;;;;11.10;6.13;;;;;;;20.14;70.37;99247.31;5031925;28;20056;-75
2021/06/19 02:47:45;;;;;;;9.20;4.18;;;;;;;20.02;70.99;99266.38;5033900;28;20479;-83
2021/06/19 02:50:13;;;;;;;7.18;4.60;;;;;;;20.14;70.28;99258.69;5039211;28;20495;-76
2021/06/19 02:52:42;;;;;;;6.63;4.05;;;;;;;20.17;70.25;99269.25;5047099;28;20049;-75
2021/06/19 02:55:17;;;;;;;5.75;4.35;;;;;;;20.09;70.76;99270.47;5037892;28;20036;-84
2021/06/19 02:57:42;;;;;;;6.43;4.18;;;;;;;20.15;70.94;99263.13;5039588;28;20034;-75
2021/06/19 03:00:10;;;;;;;12.85;4.97;;;;;;;20.31;70.24;99272.09;5037119;28;20071;-84
2021/06/19 03:02:36;;;;;;;9.25;4.60;;;;;;;20.43;69.45;99270.03;5040792;28;20037;-84
2021/06/19 03:05:03;;;;;;;7.20;4.30;;;;;;;20.44;70.55;99275.28;5036732;28;20036;-76
2021/06/19 03:07:29;;;;;;;11.13;3.80;;;;;;;20.36;69.80;99261.53;5041423;28;20098;-75
2021/06/19 03:09:54;;;;;;;6.50;4.20;;;;;;;20.36;69.67;99261.53;5042424;28;20438;-84
2021/06/19 03:12:20;;;;;;;12.02;4.10;;;;;;;20.43;69.73;99270.84;5051832;28;20506;-75
2021/06/19 03:14:45;;;;;;;7.85;3.40;;;;;;;20.40;69.42;99262.34;5051383;28;20033;-83
2021/06/19 03:17:12;;;;;;;7.28;3.53;;;;;;;20.35;70.01;99266.41;5051298;28;20541;-84
2021/06/19 03:19:38;;;;;;;24.83;5.10;;;;;;;20.26;70.37;99263.94;5051328;28;20100;-83
2021/06/19 03:22:04;;;;;;;9.15;3.75;;;;;;;20.20;70.45;99262.75;5051306;28;20111;-75
2021/06/19 03:24:30;;;;;;;8.18;3.90;;;;;;;20.31;71.02;99255.03;5051124;28;20501;-83
2021/06/19 03:26:55;;;;;;;4.47;3.50;;;;;;;20.43;70.34;99262.31;5049895;28;20036;-75
2021/06/19 03:29:21;;;;;;;8.18;4.25;;;;;;;20.55;70.15;99263.94;5046874;28;20128;-75
2021/06/19 03:31:47;;;;;;;4.57;3.88;;;;;;;20.54;70.10;99276.53;5048564;28;20025;-75
2021/06/19 03:34:13;;;;;;;5.82;3.63;;;;;;;20.48;69.99;99270.44;5039291;28;20045;-75
2021/06/19 03:36:38;;;;;;;6.28;4.13;;;;;;;20.32;70.51;99270.84;5049664;28;20524;-83
2021/06/19 03:39:04;;;;;;;8.13;4.88;;;;;;;20.17;71.06;99270.03;5041542;28;20037;-83
2021/06/19 03:41:29;;;;;;;6.18;4.18;;;;;;;20.05;71.46;99281.81;5038322;28;20026;-75
2021/06/19 03:43:55;;;;;;;10.60;4.18;;;;;;;19.91;72.17;99274.06;5043625;28;20407;-83
2021/06/19 03:46:20;;;;;;;7.18;5.22;;;;;;;19.87;72.89;99278.91;5037499;28;20537;-83
2021/06/19 03:48:46;;;;;;;26.30;5.05;;;;;;;19.93;72.87;99277.34;5049779;28;20032;-71
2021/06/19 03:51:11;;;;;;;15.68;4.93;;;;;;;19.98;72.86;99271.25;5039323;28;20283;-71
2021/06/19 03:53:37;;;;;;;7.68;4.15;;;;;;;20.08;72.87;99271.69;5049509;28;20433;-74
2021/06/19 03:56:02;;;;;;;5.30;4.05;;;;;;;20.13;71.76;99274.91;5039783;28;20052;-69
2021/06/19 03:58:28;;;;;;;14.02;4.68;;;;;;;20.10;72.27;99277.75;5038001;28;20156;-69
2021/06/19 04:00:54;;;;;;;9.63;4.40;;;;;;;20.08;72.65;99260.31;5043205;28;20083;-74
2021/06/19 04:03:19;;;;;;;15.40;4.75;;;;;;;20.18;72.24;99277.34;5044896;28;20050;-72
2021/06/19 04:05:45;;;;;;;8.45;4.35;;;;;;;20.23;72.15;99272.50;5041634;28;20122;-72
2021/06/19 04:08:10;;;;;;;7.95;4.50;;;;;;;20.27;72.02;99268.44;5037817;28;20021;-77
2021/06/19 04:10:36;;;;;;;9.57;4.38;;;;;;;20.40;71.95;99268.81;5049170;28;20158;-73
2021/06/19 04:13:01;;;;;;;6.82;5.15;;;;;;;20.45;71.51;99265.59;5050591;28;20025;-70
2021/06/19 04:15:27;;;;;;;11.88;5.20;;;;;;;20.57;70.98;99278.53;5049715;28;20422;-72
2021/06/19 04:17:52;;;;;;;6.68;5.82;;;;;;;20.59;71.37;99272.47;5050315;28;20068;-73
2021/06/19 04:20:18;;;;;;;13.52;6.07;;;;;;;20.72;70.65;99272.81;5050465;28;20021;-78
2021/06/19 04:22:45;;;;;;;13.38;5.53;;;;;;;20.75;71.30;99269.16;5050363;28;20531;-73
2021/06/19 04:25:12;;;;;;;8.35;5.35;;;;;;;20.73;71.65;99257.41;5049738;28;20021;-83
2021/06/19 04:27:49;;;;;;;6.43;4.63;;;;;;;20.84;71.35;99261.03;5049680;28;20048;-84
2021/06/19 04:30:19;;;;;;;6.68;5.38;;;;;;;20.89;71.27;99256.97;5048337;28;20025;-80
2021/06/19 04:32:44;;;;;;;17.40;5.57;;;;;;;20.83;70.67;99252.94;5047004;28;20380;-73
2021/06/19 04:35:13;;;;;;;9.82;4.53;;;;;;;20.80;70.95;99253.72;5048084;28;20036;-81
2021/06/19 04:37:38;;;;;;;10.95;4.22;;;;;;;20.85;70.32;99250.50;5048372;28;20518;-74
2021/06/19 04:40:14;;;;;;;7.43;4.72;;;;;;;20.90;70.82;99267.13;5046974;28;20017;-82
2021/06/19 04:42:41;;;;;;;5.47;4.43;;;;;;;20.99;69.75;99263.84;5049253;28;20044;-73
2021/06/19 04:45:09;;;;;;;5.30;4.80;;;;;;;21.05;69.34;99270.72;5048633;28;20030;-72
2021/06/19 04:47:35;;;;;;;10.50;4.30;;;;;;;21.03;70.10;99264.66;5050175;28;20033;-82
2021/06/19 04:50:04;;;;;;;9.65;5.85;;;;;;;20.89;69.66;99272.00;5046422;28;20025;-76
2021/06/19 04:52:34;;;;;;;7.15;4.47;;;;;;;21.04;69.49;99260.59;5045584;28;20048;-77
2021/06/19 04:55:00;;;;;;;;;;;;;;;21.13;69.19;99271.50;5043408;28;20123;-73
2021/06/19 04:57:26;;;;;;;5.90;4.60;;;;;;;20.96;69.81;99271.19;5050128;28;20411;-71
2021/06/19 04:59:52;;;;;;;7.68;5.03;;;;;;;21.09;69.54;99268.69;5048812;28;20064;-80
2021/06/19 05:02:18;;;;;;;6.40;4.95;;;;;;;21.11;69.52;99274.75;5048441;28;20111;-71
2021/06/19 05:04:44;;;;;;;6.43;4.93;;;;;;;21.26;69.89;99275.50;5050042;28;20033;-71
2021/06/19 05:07:10;;;;;;;8.25;4.90;;;;;;;21.37;69.08;99275.47;5048509;28;20029;-74
2021/06/19 05:09:35;;;;;;;13.13;5.30;;;;;;;21.51;68.93;99288.00;5048619;28;20128;-72
2021/06/19 05:12:01;;;;;;;8.82;4.63;;;;;;;21.62;68.15;99288.75;5049926;28;20032;-75
2021/06/19 05:14:28;;;;;;;7.25;5.18;;;;;;;21.72;67.35;99278.56;5047523;28;20042;-74
2021/06/19 05:16:54;;;;;;;4.95;4.45;;;;;;;21.70;67.49;99286.72;5049829;28;20035;-74
2021/06/19 05:19:20;;;;;;;8.88;4.75;;;;;;;21.72;68.01;99278.56;5049626;28;20152;-75
2021/06/19 05:21:46;;;;;;;5.85;5.00;;;;;;;21.73;67.26;99275.31;5049834;28;20025;-74
2021/06/19 05:24:12;;;;;;;5.10;4.60;;;;;;;21.71;67.18;99274.09;5050336;28;20062;-79
2021/06/19 05:26:38;;;;;;;6.63;5.60;;;;;;;21.72;68.06;99272.88;5050682;28;20025;-75
2021/06/19 05:29:04;;;;;;;5.25;4.75;;;;;;;21.65;67.51;99267.19;5054050;28;20043;-73
2021/06/19 05:31:30;;;;;;;5.80;4.78;;;;;;;21.63;67.67;99267.63;5053353;28;20033;-73
2021/06/19 05:33:55;;;;;;;7.97;3.78;;;;;;;21.70;66.59;99272.47;5053772;28;20048;-76
2021/06/19 05:36:21;;;;;;;7.07;4.47;;;;;;;21.66;66.18;99275.34;5053263;28;20032;-73
2021/06/19 05:38:46;;;;;;;7.18;4.40;;;;;;;21.76;67.07;99275.69;5053428;28;20037;-73
2021/06/19 05:41:11;;;;;;;7.60;3.50;;;;;;;21.81;66.41;99273.22;5052012;28;20025;-72
2021/06/19 05:43:37;;;;;;;7.22;3.70;;;;;;;21.89;66.30;99282.53;5053484;28;20129;-74
2021/06/19 05:46:03;;;;;;;13.93;3.85;;;;;;;22.08;66.71;99277.47;5053550;28;20021;-73
2021/06/19 05:48:28;;;;;;;4.70;3.28;;;;;;;21.95;64.33;99280.03;5051772;28;20048;-71
2021/06/19 05:50:54;;;;;;;5.32;2.90;;;;;;;22.12;64.01;99272.59;5052204;28;20028;-72
2021/06/19 05:53:19;;;;;;;5.47;3.13;;;;;;;22.09;65.26;99268.53;5053097;28;20105;-74
2021/06/19 05:55:45;;;;;;;3.83;3.28;;;;;;;22.16;65.42;99267.66;5039203;28;20048;-74
2021/06/19 05:58:10;;;;;;;3.72;3.42;;;;;;;22.13;63.90;99266.47;5053411;28;20041;-74
2021/06/19 06:00:37;;;;;;;3.45;2.97;;;;;;;22.20;63.98;99279.81;5052778;28;20017;-71
2021/06/19 06:03:03;;;;;;;3.10;2.90;;;;;;;22.28;64.60;99266.34;5052898;28;20037;-78
2021/06/19 06:05:29;;;;;;;6.47;3.42;;;;;;;22.39;63.56;99267.06;5052886;28;20021;-78
2021/06/19 06:07:55;;;;;;;5.88;3.42;;;;;;;22.43;63.20;99264.97;5053018;28;20102;-70
2021/06/19 06:10:21;;;;;;;4.75;3.22;;;;;;;22.53;63.92;99262.50;5051457;28;20494;-79
2021/06/19 06:12:46;;;;;;;7.75;4.05;;;;;;;22.60;63.68;99265.25;5052725;28;20065;-71
2021/06/19 06:15:12;;;;;;;2.90;2.70;;;;;;;22.55;62.78;99265.72;5048006;28;20119;-70
2021/06/19 06:17:38;;;;;;;4.50;3.28;;;;;;;22.62;61.43;99259.13;5046852;28;20037;-70
2021/06/19 06:20:05;;;;;;;9.32;3.97;;;;;;;22.57;62.34;99269.78;5052651;28;20422;-76
2021/06/19 06:22:30;;;;;;;3.70;3.40;;;;;;;22.66;60.79;99272.13;5043273;28;20091;-76
2021/06/19 06:24:56;;;;;;;3.53;3.22;;;;;;;22.74;61.53;99270.00;5051598;28;20525;-73
2021/06/19 06:27:22;;;;;;;3.22;3.00;;;;;;;22.72;60.98;99276.13;5047841;28;20033;-77
2021/06/19 06:29:47;;;;;;;5.60;3.40;;;;;;;22.77;60.72;99268.34;5048984;28;20399;-71
2021/06/19 06:32:13;;;;;;;3.15;2.70;;;;;;;22.70;60.80;99257.84;5042416;28;20064;-80
2021/06/19 06:34:38;;;;;;;3.70;2.90;;;;;;;22.86;60.65;99266.59;5039951;28;20053;-74
2021/06/19 06:37:06;;;;;;;6.82;3.63;;;;;;;22.98;60.31;99258.75;5039467;28;20526;-75
2021/06/19 06:39:32;;;;;;;3.78;3.20;;;;;;;23.05;59.05;99255.00;5033766;28;20556;-79
2021/06/19 06:41:59;;;;;;;3.30;3.00;;;;;;;23.07;58.45;99258.22;5045399;28;20163;-78
2021/06/19 06:44:25;;;;;;;3.65;3.20;;;;;;;23.25;59.72;99258.00;5035791;28;20412;-79
2021/06/19 06:46:50;;;;;;;4.07;2.97;;;;;;;23.34;59.53;99258.31;5046081;28;20083;-73
2021/06/19 06:49:17;;;;;;;3.50;3.03;;;;;;;23.56;60.04;99253.13;5046682;28;20403;-74
2021/06/19 06:51:42;;;;;;;2.95;2.72;;;;;;;23.76;58.84;99251.59;5045713;28;20028;-81
2021/06/19 06:54:08;;;;;;;5.93;3.15;;;;;;;23.79;58.59;99250.78;5050521;28;20087;-78
2021/06/19 06:56:33;;;;;;;3.00;2.80;;;;;;;23.88;57.89;99247.38;5039385;28;20032;-74
2021/06/19 06:58:59;;;;;;;3.42;3.08;;;;;;;23.87;57.83;99240.03;5050548;28;20045;-76
2021/06/19 07:01:26;;;;;;;3.53;2.80;;;;;;;24.03;57.87;99233.66;5043319;28;20052;-76
2021/06/19 07:03:55;;;;;;;3.22;2.92;;;;;;;24.19;57.83;99230.13;5033974;28;20042;-80
2021/06/19 07:06:25;;;;;;;2.90;2.60;;;;;;;24.36;56.35;99231.06;5034796;28;20026;-73
2021/06/19 07:08:50;;;;;;;3.40;3.10;;;;;;;24.44;56.53;99226.06;5033751;28;20415;-74
2021/06/19 07:11:16;;;;;;;2.40;2.20;;;;;;;24.30;52.76;99224.25;5046014;28;20025;-70
2021/06/19 07:13:41;;;;;;;2.10;2.00;;;;;;;24.37;53.94;99221.25;5044869;28;20461;-79
2021/06/19 07:16:07;;;;;;;6.95;2.03;;;;;;;24.37;52.57;99215.53;5045091;28;20036;-72
2021/06/19 07:18:33;;;;;;;4.88;1.90;;;;;;;24.38;52.81;99212.25;5044763;28;20057;-84
2021/06/19 07:20:59;;;;;;;3.22;2.20;;;;;;;24.50;54.22;99204.28;5040625;28;20804;-73
2021/06/19 07:23:25;;;;;;;2.17;2.03;;;;;;;24.46;52.88;99207.19;5044865;28;20033;-73
2021/06/19 07:25:53;;;;;;;6.13;2.10;;;;;;;24.67;52.95;99205.19;5037919;28;20536;-82
2021/06/19 07:28:18;;;;;;;2.63;2.42;;;;;;;24.73;52.23;99199.75;5046949;28;20035;-82
2021/06/19 07:30:44;;;;;;;3.05;2.35;;;;;;;24.80;52.08;99203.31;5050506;28;20483;-82
2021/06/19 07:33:09;;;;;;;3.85;2.10;;;;;;;25.07;53.32;99202.34;5050737;28;20051;-82
2021/06/19 07:35:35;;;;;;;5.13;2.03;;;;;;;24.96;50.63;99198.91;5050980;28;20029;-82
2021/06/19 07:38:00;;;;;;;1.80;1.70;;;;;;;24.81;49.91;99198.41;5045548;28;20034;-82
2021/06/19 07:40:26;;;;;;;3.50;1.60;;;;;;;24.95;50.86;99191.56;5046275;28;20029;-73
2021/06/19 07:42:52;;;;;;;2.47;2.22;;;;;;;24.99;48.31;99194.34;5043535;28;20037;-73
2021/06/19 07:45:18;;;;;;;2.85;1.70;;;;;;;25.04;48.15;99190.97;5049710;28;20021;-73
2021/06/19 07:47:44;;;;;;;5.13;1.70;;;;;;;25.24;48.29;99191.75;5051091;28;20048;-73
2021/06/19 07:50:10;;;;;;;4.45;1.42;;;;;;;25.24;46.93;99193.81;5049883;28;20068;-82
2021/06/19 07:52:36;;;;;;;2.10;1.90;;;;;;;25.33;47.03;99194.00;5046386;28;20534;-75
2021/06/19 07:55:03;;;;;;;3.67;1.95;;;;;;;25.35;48.34;99202.97;5040257;28;20063;-73
2021/06/19 07:57:29;;;;;;;9.35;2.00;;;;;;;25.53;47.27;99201.00;5046337;28;20033;-81
2021/06/19 07:59:55;;;;;;;2.45;1.67;;;;;;;25.49;47.71;99201.06;5043202;28;20032;-73
2021/06/19 08:02:20;;;;;;;1.88;1.63;;;;;;;25.57;45.87;99188.19;5045868;28;20025;-83
2021/06/19 08:04:46;;;;;;;5.38;1.65;;;;;;;25.50;45.80;99199.81;5036100;28;20623;-76
2021/06/19 08:07:12;;;;;;;3.95;1.73;;;;;;;25.57;46.17;99193.09;5034004;28;20026;-84
2021/06/19 08:09:37;;;;;;;2.35;1.90;;;;;;;25.78;46.63;99191.78;5045367;28;20030;-74
2021/06/19 08:12:03;;;;;;;1.90;1.80;;;;;;;25.94;44.72;99182.38;5034248;28;20468;-73
2021/06/19 08:14:29;;;;;;;3.45;1.65;;;;;;;26.10;43.95;99192.22;5042893;28;20033;-82
2021/06/19 08:16:57;;;;;;;10.05;2.22;;;;;;;26.24;42.62;99189.00;5048436;28;20021;-83
2021/06/19 08:19:23;;;;;;;2.17;1.73;;;;;;;26.43;42.65;99186.47;5048430;28;20049;-78
2021/06/19 08:21:50;;;;;;;2.00;1.80;;;;;;;26.52;40.55;99191.53;5030905;28;20025;-76
2021/06/19 08:24:15;;;;;;;6.32;1.60;;;;;;;26.53;42.52;99190.28;5036106;28;20380;-76
2021/06/19 08:26:42;;;;;;;6.38;1.70;;;;;;;26.35;41.68;99188.72;5047098;28;20644;-82
2021/06/19 08:29:08;;;;;;;5.35;1.88;;;;;;;26.26;44.19;99197.97;5041478;28;20064;-77
2021/06/19 08:31:38;;;;;;;2.22;1.80;;;;;;;26.18;45.59;99191.59;5040791;28;20021;-80
2021/06/19 08:34:05;;;;;;;7.22;2.10;;;;;;;26.11;44.11;99203.25;5043485;28;20057;-80
2021/06/19 08:36:31;;;;;;;4.50;2.10;;;;;;;26.09;44.46;99188.56;5049071;28;20127;-80
2021/06/19 08:38:57;;;;;;;3.15;1.77;;;;;;;26.27;44.03;99193.03;5045560;28;20171;-78
2021/06/19 08:41:23;;;;;;;11.93;4.32;;;;;;;26.20;43.97;99197.72;5030678;28;20480;-78
2021/06/19 08:43:49;;;;;;;4.30;2.83;;;;;;;26.36;43.83;99193.19;5029466;28;20116;-78
2021/06/19 08:46:18;;;;;;;4.07;1.85;;;;;;;26.59;42.39;99188.50;5038379;28;20025;-83
2021/06/19 08:48:47;;;;;;;4.73;1.77;;;;;;;26.73;41.41;99185.22;5057617;28;20112;-81
2021/06/19 08:51:13;;;;;;;6.38;2.00;;;;;;;26.72;41.07;99192.22;5047543;28;20466;-78
2021/06/19 08:53:38;;;;;;;9.90;2.65;;;;;;;26.94;40.71;99188.75;5048745;28;20049;-79
2021/06/19 08:56:04;;;;;;;4.05;1.50;;;;;;;27.18;41.75;99182.72;5045257;28;20036;-79
2021/06/19 08:58:30;;;;;;;2.40;1.35;;;;;;;27.47;41.04;99184.69;5040910;28;20042;-79
2021/06/19 09:00:56;;;;;;;1.55;1.42;;;;;;;27.42;38.71;99176.66;5045479;28;20022;-77
2021/06/19 09:03:26;;;;;;;2.25;1.52;;;;;;;27.46;39.89;99180.19;5047094;28;20123;-73
2021/06/19 09:05:53;;;;;;;2.35;1.50;;;;;;;27.52;37.99;99172.63;5052391;28;20509;-76
2021/06/19 09:08:19;;;;;;;6.65;2.10;;;;;;;27.41;41.30;99192.28;5038429;28;20526;-78
2021/06/19 09:10:45;;;;;;;6.68;1.60;;;;;;;27.24;41.72;99182.97;5035387;28;20029;-73
2021/06/19 09:13:11;;;;;;;3.45;1.85;;;;;;;27.23;39.21;99181.34;5036388;28;20479;-79
2021/06/19 09:15:42;;;;;;;4.40;1.90;;;;;;;27.16;38.70;99179.50;5038504;28;20037;-71
2021/06/19 09:18:14;;;;;;;4.03;1.70;;;;;;;26.93;39.29;99180.59;5042510;28;20598;-72
2021/06/19 09:20:41;;;;;;;5.53;2.00;;;;;;;26.74;39.46;99175.34;5038410;28;20119;-73
2021/06/19 09:23:11;;;;;;;2.15;1.80;;;;;;;26.77;38.77;99173.63;5050539;28;20479;-70
2021/06/19 09:25:40;;;;;;;1.92;1.55;;;;;;;26.88;38.53;99179.09;5044114;28;20056;-71
2021/06/19 09:28:07;;;;;;;3.22;1.70;;;;;;;26.92;39.34;99171.19;5043591;28;20048;-77
2021/06/19 09:30:34;;;;;;;1.70;1.52;;;;;;;27.17;38.02;99173.28;5042356;28;20025;-71
2021/06/19 09:33:10;;;;;;;2.13;1.70;;;;;;;27.08;38.18;99163.75;5051821;28;20520;-72
2021/06/19 09:35:40;;;;;;;3.00;2.05;;;;;;;27.17;39.75;99164.69;5043277;28;20032;-75
2021/06/19 09:38:09;;;;;;;2.42;1.90;;;;;;;27.22;39.15;99163.31;5040243;28;20033;-71
2021/06/19 09:40:42;;;;;;;3.85;2.20;;;;;;;27.37;38.78;99165.72;5049486;28;20411;-73
2021/06/19 09:43:22;;;;;;;1.95;1.67;;;;;;;27.04;39.39;99161.00;5051905;28;20033;-73
2021/06/19 09:46:01;;;;;;;2.25;1.80;;;;;;;26.84;40.62;99159.06;5041896;28;20075;-71
2021/06/19 09:48:30;;;;;;;1.77;1.67;;;;;;;26.93;40.65;99163.38;5051780;28;20426;-73
2021/06/19 09:51:15;;;;;;;2.40;2.00;;;;;;;26.96;41.81;99157.53;5042834;28;20108;-74
2021/06/19 09:53:43;;;;;;;2.95;2.00;;;;;;;26.73;41.59;99156.53;5042558;28;20432;-73
2021/06/19 09:56:11;;;;;;;5.93;2.67;;;;;;;26.86;40.95;99150.03;5041454;28;20112;-82
2021/06/19 09:58:50;;;;;;;4.47;2.38;;;;;;;26.90;41.18;99153.59;5035000;28;20041;-74
2021/06/19 10:01:21;;;;;;;3.28;2.20;;;;;;;26.75;41.34;99153.22;5034648;28;20542;-77
2021/06/19 10:03:51;;;;;;;7.68;3.45;;;;;;;26.91;42.07;99153.16;5051475;28;20047;-79
2021/06/19 10:06:17;;;;;;;3.13;1.98;;;;;;;26.91;41.51;99138.03;5046855;28;20423;-75
2021/06/19 10:08:47;;;;;;;16.48;3.22;;;;;;;27.12;42.15;99150.91;5051608;28;20029;-75
2021/06/19 10:11:13;;;;;;;5.13;2.28;;;;;;;27.19;41.20;99142.06;5051458;28;20033;-77
2021/06/19 10:13:42;;;;;;;3.85;1.95;;;;;;;27.33;38.29;99140.81;5051873;28;20029;-76
2021/06/19 10:16:10;;;;;;;5.50;2.05;;;;;;;27.58;39.46;99126.94;5052405;28;20149;-78
2021/06/19 10:18:37;;;;;;;1.85;1.58;;;;;;;27.72;39.19;99134.25;5052564;28;20533;-78
2021/06/19 10:21:03;;;;;;;1.50;1.40;;;;;;;27.72;38.34;99123.59;5052380;28;20033;-76
2021/06/19 10:23:28;;;;;;;5.38;1.77;;;;;;;27.75;38.44;99121.84;5052803;28;20056;-78
2021/06/19 10:25:56;;;;;;;1.85;1.75;;;;;;;27.70;37.42;99128.19;5042169;28;21481;-76
2021/06/19 10:28:22;;;;;;;2.53;2.15;;;;;;;27.68;38.04;99122.88;5044155;28;20038;-75
2021/06/19 10:30:49;;;;;;;5.22;2.03;;;;;;;27.72;38.52;99125.66;5044575;28;20025;-75
2021/06/19 10:33:44;;;;;;;4.03;2.00;;;;;;;27.58;38.87;99127.75;5043251;28;20049;-75
2021/06/19 10:36:11;;;;;;;2.65;2.10;;;;;;;27.47;39.81;99125.19;5041581;28;20404;-74
2021/06/19 10:38:55;;;;;;;3.63;1.90;;;;;;;27.39;41.24;99125.88;5052121;28;20040;-75
2021/06/19 10:41:23;;;;;;;5.50;2.35;;;;;;;26.47;46.70;99132.69;5050146;28;20100;-75
2021/06/19 10:43:51;;;;;;;2.33;2.13;;;;;;;26.16;47.79;99131.03;5051986;28;20037;-76
2021/06/19 10:46:34;;;;;;;3.75;2.28;;;;;;;25.64;50.99;99127.06;5046480;28;20491;-76
2021/06/19 10:49:21;;;;;;;4.03;3.15;;;;;;;25.21;52.43;99138.28;5050570;28;20120;-76
2021/06/19 10:51:47;;;;;;;9.13;2.95;;;;;;;25.20;52.44;99130.13;5043470;28;20176;-76
2021/06/19 10:54:21;;;;;;;5.18;2.67;;;;;;;25.40;52.30;99126.41;5050590;28;20151;-76
2021/06/19 10:56:58;;;;;;;3.65;3.00;;;;;;;25.39;52.92;99128.47;5050165;28;20049;-76
2021/06/19 10:59:26;;;;;;;3.55;3.25;;;;;;;25.59;52.81;99122.72;5050564;28;20033;-76
2021/06/19 11:01:55;;;;;;;12.23;4.18;;;;;;;25.42;52.74;99126.75;5051179;28;20055;-75
2021/06/19 11:04:39;;;;;;;4.28;3.08;;;;;;;25.28;55.41;99123.00;5051511;28;20048;-75
2021/06/19 11:07:10;;;;;;;5.20;3.15;;;;;;;25.27;57.65;99124.25;5051152;28;20059;-76
2021/06/19 11:09:48;;;;;;;3.92;3.28;;;;;;;25.33;56.88;99127.38;5045679;28;20048;-76
2021/06/19 11:12:27;;;;;;;3.95;3.00;;;;;;;25.39;55.87;99119.88;5041894;28;20021;-75
2021/06/19 11:15:05;;;;;;;5.78;3.88;;;;;;;25.32;56.39;99114.34;5048588;28;20445;-75
2021/06/19 11:17:33;;;;;;;3.92;3.15;;;;;;;25.41;56.51;99111.66;5044525;28;20079;-75
2021/06/19 11:20:05;;;;;;;6.13;3.75;;;;;;;25.75;56.36;99119.00;5049330;28;20047;-74
2021/06/19 11:22:53;;;;;;;5.18;2.70;;;;;;;25.90;55.73;99118.66;5044423;28;20099;-76
2021/06/19 11:25:43;;;;;;;4.53;2.92;;;;;;;26.09;54.22;99111.19;5043206;28;20044;-75
2021/06/19 11:28:26;;;;;;;5.45;3.17;;;;;;;25.69;54.93;99111.41;5047905;28;20037;-75
2021/06/19 11:30:54;;;;;;;6.82;3.00;;;;;;;25.94;53.66;99116.50;5049734;28;20032;-75
2021/06/19 11:33:24;;;;;;;8.05;3.35;;;;;;;25.75;56.00;99113.28;5050711;28;20037;-75